.
WxDataArchive / Data Records for 2008-04-14
2008-04-13 April 2008 2008-04-15

Data Records for Monday, 14 April 2008

Time	Temp	Chill	HIndex	Humid	Dewpt	 Wind 	HiWind	WindDir	Rain 	Barom 
-----	----	-----	------	-----	-----	------	------	-------	-----	----- 
00:00	30.7	30.7	30.7	83	26.2	0	0	---	0.00	30.092 
00:05	30.7	30.7	30.7	83	26.2	0	0	---	0.00	30.092 
00:10	30.4	30.4	30.4	83	25.9	0	0	---	0.00	30.094 
00:15	30.3	30.3	30.3	83	25.8	0	0	---	0.00	30.096 
00:20	30.0	30.0	30.0	83	25.5	0	0	---	0.00	30.097 
00:25	29.8	29.8	29.8	83	25.3	0	0	---	0.00	30.098 
00:30	29.7	29.7	29.7	83	25.2	0	0	---	0.00	30.099 
00:35	29.5	29.5	29.5	83	25.0	0	0	---	0.00	30.099 
00:40	29.5	29.5	29.5	84	25.3	0	0	---	0.00	30.099 
00:45	29.4	29.4	29.4	84	25.2	0	0	---	0.00	30.099 
00:50	29.3	29.3	29.3	84	25.1	0	0	---	0.00	30.099 
00:55	29.1	29.1	29.1	84	24.9	0	0	---	0.00	30.099 
01:00	29.0	29.0	29.0	84	24.8	0	0	---	0.00	30.098 
01:05	29.0	29.0	29.0	84	24.8	0	0	---	0.00	30.098 
01:10	28.8	28.8	28.8	84	24.6	0	0	---	0.00	30.098 
01:15	28.7	28.7	28.7	84	24.5	0	0	---	0.00	30.099 
01:20	28.7	28.7	28.7	85	24.8	0	0	---	0.00	30.099 
01:25	28.5	28.5	28.5	85	24.6	0	0	---	0.00	30.100 
01:30	28.5	28.5	28.5	85	24.6	0	0	---	0.00	30.099 
01:35	28.5	28.5	28.5	85	24.6	0	0	---	0.00	30.099 
01:40	28.4	28.4	28.4	86	24.8	0	1	270	0.00	30.102 
01:45	28.5	28.5	28.5	86	24.9	0	1	270	0.00	30.099 
01:50	29.0	29.0	29.0	86	25.3	0	1	270	0.00	30.098 
01:55	29.4	29.4	29.4	85	25.5	0	1	270	0.00	30.098 
02:00	29.7	29.7	29.7	84	25.5	0	1	270	0.00	30.097 
02:05	30.0	30.0	30.0	83	25.5	0	2	180	0.00	30.097 
02:10	30.1	30.1	30.1	82	25.3	0	0	---	0.00	30.097 
02:15	30.1	30.1	30.1	82	25.3	0	0	---	0.00	30.097 
02:20	30.3	30.3	30.3	81	25.2	0	1	180	0.00	30.097 
02:25	30.3	30.3	30.3	81	25.2	0	0	---	0.00	30.098 
02:30	30.0	30.0	30.0	81	24.9	0	0	---	0.00	30.099 
02:35	29.8	29.8	29.8	81	24.7	0	0	---	0.00	30.098 
02:40	29.7	29.7	29.7	81	24.6	0	0	---	0.00	30.098 
02:45	29.5	29.5	29.5	81	24.4	0	1	180	0.00	30.097 
02:50	29.5	29.5	29.5	82	24.7	0	1	180	0.00	30.097 
02:55	29.5	29.5	29.5	81	24.4	0	0	---	0.00	30.097 
03:00	29.7	29.7	29.7	81	24.6	0	0	---	0.00	30.098 
03:05	29.7	29.7	29.7	81	24.6	0	0	---	0.00	30.099 
03:10	29.7	29.7	29.7	81	24.6	0	1	180	0.00	30.098 
03:15	29.8	29.8	29.8	80	24.4	0	2	180	0.00	30.099 
03:20	30.0	30.0	30.0	80	24.6	0	1	180	0.00	30.099 
03:25	30.0	30.0	30.0	80	24.6	0	0	---	0.00	30.100 
03:30	29.8	29.8	29.8	80	24.4	0	0	---	0.00	30.100 
03:35	29.7	29.7	29.7	80	24.3	0	0	---	0.00	30.101 
03:40	29.7	29.7	29.7	80	24.3	0	0	---	0.00	30.100 
03:45	29.5	29.5	29.5	80	24.1	0	0	---	0.00	30.100 
03:50	29.5	29.5	29.5	80	24.1	0	0	---	0.00	30.099 
03:55	29.4	29.4	29.4	81	24.3	0	1	180	0.00	30.099 
04:00	29.4	29.4	29.4	81	24.3	0	0	---	0.00	30.099 
04:05	29.3	29.3	29.3	81	24.2	0	0	---	0.00	30.100 
04:10	29.1	29.1	29.1	81	24.0	0	0	---	0.00	30.099 
04:15	29.0	29.0	29.0	82	24.2	0	0	---	0.00	30.098 
04:20	28.8	28.8	28.8	82	24.0	0	2	180	0.00	30.096 
04:25	28.8	28.8	28.8	82	24.0	0	1	180	0.00	30.092 
04:30	28.8	28.8	28.8	82	24.0	0	1	180	0.00	30.089 
04:35	28.8	28.8	28.8	82	24.0	0	0	---	0.00	30.094 
04:40	28.7	28.7	28.7	82	23.9	0	0	---	0.00	30.098 
04:45	28.7	28.7	28.7	82	23.9	0	0	---	0.00	30.098 
04:50	28.4	28.4	28.4	82	23.6	0	0	---	0.00	30.099 
04:55	28.2	28.2	28.2	83	23.7	0	0	---	0.00	30.103 
05:00	28.1	28.1	28.1	83	23.6	0	0	---	0.00	30.102 
05:05	27.8	27.8	27.8	83	23.3	0	0	---	0.00	30.105 
05:10	27.6	27.6	27.6	84	23.4	0	0	---	0.00	30.110 
05:15	27.6	27.6	27.6	84	23.4	0	0	---	0.00	30.113 
05:20	27.5	27.5	27.5	84	23.3	0	0	---	0.00	30.115 
05:25	27.5	27.5	27.5	84	23.3	0	0	---	0.00	30.117 
05:30	27.5	27.5	27.5	85	23.6	0	0	---	0.00	30.120 
05:35	27.5	27.5	27.5	84	23.3	0	0	---	0.00	30.121 
05:40	27.3	27.3	27.3	85	23.4	0	0	---	0.00	30.126 
05:45	27.3	27.3	27.3	85	23.4	0	0	---	0.00	30.128 
05:50	27.3	27.3	27.3	85	23.4	0	0	---	0.00	30.130 
05:55	27.3	27.3	27.3	85	23.4	0	0	---	0.00	30.132 
06:00	27.3	27.3	27.3	85	23.4	0	0	---	0.00	30.134 
06:05	27.2	27.2	27.2	85	23.3	0	0	---	0.00	30.137 
06:10	27.2	27.2	27.2	85	23.3	0	0	---	0.00	30.141 
06:15	27.2	27.2	27.2	85	23.3	0	0	---	0.00	30.143 
06:20	27.0	27.0	27.0	85	23.1	0	0	---	0.00	30.146 
06:25	27.0	27.0	27.0	85	23.1	0	0	---	0.00	30.147 
06:30	26.9	26.9	26.9	85	23.0	0	0	---	0.00	30.148 
06:35	27.0	27.0	27.0	85	23.1	0	0	---	0.00	30.150 
06:40	27.2	27.2	27.2	86	23.6	0	0	---	0.00	30.152 
06:45	27.5	27.5	27.5	86	23.9	0	0	---	0.00	30.154 
06:50	27.8	27.8	27.8	86	24.2	0	0	---	0.00	30.154 
06:55	28.2	28.2	28.2	85	24.3	0	0	---	0.00	30.155 
07:00	28.8	28.8	28.8	85	24.9	0	1	180	0.00	30.156 
07:05	29.5	29.5	29.5	83	25.0	0	1	180	0.00	30.158 
07:10	30.3	30.3	30.3	82	25.5	0	1	180	0.00	30.159 
07:15	30.9	30.9	30.9	80	25.5	0	1	180	0.00	30.159 
07:20	31.5	31.5	31.5	78	25.4	0	1	180	0.00	30.160 
07:25	31.9	31.9	31.9	76	25.2	0	1	180	0.00	30.161 
07:30	32.5	32.5	32.5	74	25.2	0	2	112	0.00	30.162 
07:35	32.9	32.9	32.9	73	25.2	0	2	112	0.00	30.164 
07:40	33.4	33.4	33.4	72	25.4	0	3	292	0.00	30.168 
07:45	33.7	33.7	33.7	70	25.0	1	3	338	0.00	30.169 
07:50	34.0	34.0	34.0	70	25.3	1	3	338	0.00	30.171 
07:55	34.3	34.3	34.3	69	25.2	0	4	45	0.00	30.172 
08:00	34.7	34.7	34.7	68	25.2	1	2	0	0.00	30.171 
08:05	35.0	35.0	35.0	68	25.5	1	4	0	0.00	30.174 
08:10	35.3	35.3	35.3	68	25.8	1	4	22	0.00	30.176 
08:15	35.6	35.6	35.6	67	25.7	1	3	22	0.00	30.177 
08:20	35.6	35.6	35.6	66	25.4	1	3	68	0.00	30.177 
08:25	35.8	35.8	35.8	68	26.3	0	2	292	0.01	30.180 
08:30	36.0	36.0	36.0	69	26.8	0	3	68	0.00	30.180 
08:35	36.5	36.5	36.5	68	27.0	0	2	68	0.00	30.183 
08:40	37.0	37.0	37.0	66	26.7	1	3	68	0.00	30.183 
08:45	37.6	37.6	37.6	65	26.9	1	3	68	0.00	30.185 
08:50	38.0	38.0	38.0	65	27.3	1	3	45	0.00	30.186 
08:55	38.3	38.3	38.3	64	27.2	1	2	338	0.00	30.187 
09:00	38.9	38.9	38.9	64	27.8	1	3	338	0.00	30.185 
09:05	39.3	39.3	39.3	64	28.2	1	2	112	0.00	30.187 
09:10	39.9	39.9	39.9	63	28.3	1	4	112	0.00	30.185 
09:15	40.3	40.3	40.3	61	27.9	1	3	68	0.00	30.187 
09:20	40.6	40.6	40.6	58	27.0	1	4	112	0.00	30.189 
09:25	40.6	40.6	40.6	60	27.8	1	5	68	0.00	30.191 
09:30	40.9	40.9	40.9	60	28.1	1	4	45	0.00	30.194 
09:35	41.1	41.1	41.1	61	28.7	1	3	0	0.00	30.195 
09:40	41.5	41.5	41.5	60	28.7	1	4	90	0.00	30.196 
09:45	42.1	42.1	42.1	60	29.2	1	3	22	0.00	30.192 
09:50	42.5	42.5	42.5	57	28.4	1	5	22	0.00	30.195 
09:55	42.5	42.5	42.5	57	28.4	3	5	112	0.00	30.196 
10:00	42.9	42.9	42.9	57	28.7	1	5	112	0.00	30.197 
10:05	43.3	43.3	43.3	57	29.1	1	3	68	0.00	30.202 
10:10	43.3	43.3	43.3	53	27.3	1	3	45	0.00	30.200 
10:15	43.3	43.3	43.3	54	27.8	1	3	68	0.00	30.203 
10:20	43.6	43.6	43.6	53	27.6	1	3	0	0.00	30.202 
10:25	43.9	43.9	43.9	56	29.2	1	2	338	0.00	30.202 
10:30	44.3	44.3	44.3	58	30.5	1	4	90	0.00	30.202 
10:35	44.6	44.6	44.6	54	29.0	1	3	68	0.00	30.204 
10:40	44.8	44.8	44.8	52	28.3	1	3	45	0.00	30.204 
10:45	44.9	44.9	44.9	53	28.8	1	5	45	0.00	30.204 
10:50	45.4	45.4	45.4	49	27.4	1	5	45	0.00	30.204 
10:55	45.4	45.4	45.4	51	28.3	1	3	68	0.00	30.203 
11:00	45.8	45.8	45.8	51	28.7	2	6	112	0.00	30.202 
11:05	46.1	46.1	46.1	50	28.5	3	7	112	0.00	30.204 
11:10	46.0	46.0	46.0	53	29.8	3	6	90	0.00	30.202 
11:15	46.0	46.0	46.0	52	29.4	2	7	68	0.00	30.203 
11:20	46.0	46.0	46.0	48	27.4	1	3	68	0.00	30.204 
11:25	46.4	46.4	46.4	48	27.8	1	2	22	0.00	30.202 
11:30	46.8	46.8	46.8	49	28.7	1	5	292	0.00	30.199 
11:35	47.1	47.1	47.1	50	29.4	2	6	112	0.00	30.201 
11:40	47.6	47.6	47.6	51	30.4	1	6	45	0.00	30.200 
11:45	47.6	47.6	47.6	50	29.9	2	9	112	0.00	30.199 
11:50	48.0	48.0	48.0	46	28.2	2	7	90	0.00	30.198 
11:55	48.5	48.5	48.5	45	28.1	2	9	68	0.00	30.198 
12:00	47.9	46.4	47.9	43	26.5	4	9	112	0.00	30.198 
12:05	48.0	48.0	48.0	45	27.7	2	5	0	0.00	30.201 
12:10	48.2	48.2	48.2	45	27.9	1	7	45	0.00	30.199 
12:15	48.3	48.3	48.3	44	27.4	2	9	338	0.00	30.198 
12:20	48.6	48.6	48.6	41	26.0	2	6	112	0.00	30.198 
12:25	49.2	49.2	49.2	47	29.8	2	5	45	0.00	30.198 
12:30	49.8	49.8	49.8	44	28.8	2	5	112	0.00	30.197 
12:35	49.9	49.9	49.9	47	30.5	2	8	68	0.00	30.196 
12:40	50.1	50.1	50.1	48	31.2	1	5	45	0.00	30.193 
12:45	49.2	49.2	49.2	42	27.1	2	7	45	0.00	30.192 
12:50	49.2	49.2	49.2	42	27.1	1	4	68	0.00	30.188 
12:55	49.6	49.6	49.6	42	27.5	2	5	45	0.00	30.186 
13:00	49.9	49.9	49.9	39	25.9	1	4	90	0.00	30.184 
13:05	50.2	50.2	50.2	41	27.4	2	9	112	0.00	30.182 
13:10	50.5	50.5	50.5	43	28.8	2	7	315	0.00	30.182 
13:15	50.8	50.8	50.8	41	28.0	2	6	90	0.00	30.183 
13:20	50.8	50.8	50.8	37	25.5	3	6	112	0.00	30.181 
13:25	51.1	51.1	51.1	42	28.8	2	6	22	0.00	30.180 
13:30	51.3	51.3	51.3	39	27.2	2	7	112	0.00	30.181 
13:35	50.7	50.7	50.7	38	26.0	4	11	112	0.00	30.182 
13:40	50.5	50.5	50.5	41	27.7	2	6	68	0.00	30.181 
13:45	51.1	51.1	51.1	41	28.2	2	9	22	0.00	30.180 
13:50	51.3	51.3	51.3	38	26.6	3	9	45	0.00	30.180 
13:55	51.0	51.0	51.0	38	26.3	4	10	112	0.00	30.180 
14:00	51.0	51.0	51.0	40	27.5	2	5	45	0.00	30.179 
14:05	51.4	51.4	51.4	40	27.9	2	7	68	0.00	30.178 
14:10	51.4	51.4	51.4	39	27.3	2	7	68	0.00	30.179 
14:15	51.7	51.7	51.7	38	26.9	2	11	45	0.00	30.176 
14:20	52.3	52.3	52.3	38	27.5	1	4	112	0.00	30.174 
14:25	51.7	51.7	51.7	35	24.9	3	10	112	0.00	30.171 
14:30	51.4	51.4	51.4	35	24.7	3	7	90	0.00	30.170 
14:35	51.7	51.7	51.7	33	23.5	2	6	45	0.00	30.169 
14:40	51.4	51.4	51.4	34	24.0	3	7	112	0.00	30.166 
14:45	51.7	51.7	51.7	38	26.9	2	5	112	0.00	30.165 
14:50	52.3	52.3	52.3	31	22.6	2	9	68	0.00	30.167 
14:55	52.2	52.2	52.2	33	24.0	2	5	22	0.00	30.164 
15:00	52.2	52.2	52.2	34	24.7	1	6	22	0.00	30.164 
15:05	52.6	52.6	52.6	35	25.7	1	6	0	0.00	30.163 
15:10	52.8	52.8	52.8	34	25.2	2	6	45	0.00	30.163 
15:15	52.8	52.8	52.8	35	25.9	2	5	22	0.00	30.163 
15:20	52.6	52.6	52.6	35	25.7	1	5	22	0.00	30.163 
15:25	52.6	52.6	52.6	32	23.6	1	4	45	0.00	30.162 
15:30	52.6	52.6	52.6	33	24.3	2	9	22	0.00	30.163 
15:35	51.7	51.7	51.7	31	22.1	1	3	90	0.00	30.165 
15:40	51.6	51.6	51.6	36	25.5	1	3	45	0.00	30.166 
15:45	51.9	51.9	51.9	31	22.2	1	6	315	0.00	30.165 
15:50	52.0	52.0	52.0	32	23.1	1	2	315	0.00	30.165 
15:55	51.4	51.4	51.4	32	22.5	1	4	292	0.00	30.164 
16:00	51.1	51.1	51.1	35	24.4	1	4	0	0.00	30.166 
16:05	51.3	51.3	51.3	34	23.9	2	7	112	0.00	30.168 
16:10	51.9	51.9	51.9	33	23.7	1	4	112	0.00	30.167 
16:15	52.2	52.2	52.2	33	24.0	1	4	45	0.00	30.167 
16:20	52.5	52.5	52.5	32	23.5	1	4	22	0.00	30.167 
16:25	52.6	52.6	52.6	31	22.8	1	3	270	0.00	30.167 
16:30	53.1	53.1	53.1	32	24.0	1	2	22	0.00	30.167 
16:35	53.2	53.2	53.2	29	21.8	1	3	0	0.00	30.167 
16:40	53.1	53.1	53.1	31	23.3	1	5	270	0.00	30.166 
16:45	53.1	53.1	53.1	29	21.7	1	3	315	0.00	30.167 
16:50	52.9	52.9	52.9	29	21.5	1	2	45	0.00	30.166 
16:55	53.1	53.1	53.1	29	21.7	1	2	0	0.00	30.166 
17:00	52.9	52.9	52.9	30	22.3	1	3	0	0.00	30.166 
17:05	52.3	52.3	52.3	31	22.6	1	5	0	0.00	30.167 
17:10	51.7	51.7	51.7	33	23.5	1	3	22	0.00	30.169 
17:15	51.7	51.7	51.7	30	21.3	1	2	338	0.00	30.169 
17:20	52.0	52.0	52.0	33	23.8	1	2	338	0.00	30.170 
17:25	52.2	52.2	52.2	32	23.2	1	3	338	0.00	30.170 
17:30	52.3	52.3	52.3	34	24.8	1	4	22	0.00	30.173 
17:35	52.2	52.2	52.2	29	20.9	2	5	90	0.00	30.173 
17:40	51.7	51.7	51.7	29	20.5	2	5	90	0.00	30.175 
17:45	51.7	51.7	51.7	32	22.8	1	2	0	0.00	30.173 
17:50	51.7	51.7	51.7	32	22.8	0	3	0	0.00	30.174 
17:55	51.4	51.4	51.4	34	24.0	1	2	68	0.00	30.171 
18:00	51.3	51.3	51.3	33	23.2	1	3	270	0.00	30.173 
18:05	51.1	51.1	51.1	31	21.5	0	2	292	0.00	30.171 
18:10	50.8	50.8	50.8	31	21.3	1	3	0	0.00	30.171 
18:15	50.7	50.7	50.7	31	21.2	0	2	45	0.00	30.170 
18:20	50.5	50.5	50.5	34	23.2	0	2	45	0.00	30.169 
18:25	50.4	50.4	50.4	34	23.1	0	2	45	0.00	30.171 
18:30	50.2	50.2	50.2	35	23.6	0	2	45	0.00	30.171 
18:35	49.9	49.9	49.9	31	20.5	0	2	45	0.00	30.171 
18:40	49.8	49.8	49.8	32	21.1	0	2	0	0.00	30.169 
18:45	49.6	49.6	49.6	32	21.0	0	1	0	0.00	30.169 
18:50	49.4	49.4	49.4	36	23.6	0	1	0	0.00	30.169 
18:55	49.1	49.1	49.1	34	22.0	0	1	0	0.00	30.170 
19:00	48.8	48.8	48.8	35	22.4	0	1	0	0.00	30.169 
19:05	48.3	48.3	48.3	35	21.9	0	0	---	0.00	30.165 
19:10	48.0	48.0	48.0	36	22.3	0	1	0	0.00	30.168 
19:15	47.7	47.7	47.7	37	22.7	0	2	0	0.00	30.169 
19:20	47.4	47.4	47.4	38	23.1	0	0	---	0.00	30.170 
19:25	47.0	47.0	47.0	38	22.7	0	0	---	0.00	30.173 
19:30	46.7	46.7	46.7	38	22.5	0	0	---	0.00	30.174 
19:35	46.2	46.2	46.2	39	22.6	0	0	---	0.00	30.177 
19:40	46.0	46.0	46.0	39	22.4	0	0	---	0.00	30.179 
19:45	45.5	45.5	45.5	40	22.6	0	0	---	0.00	30.180 
19:50	45.1	45.1	45.1	40	22.2	0	0	---	0.00	30.181 
19:55	44.8	44.8	44.8	41	22.6	0	0	---	0.00	30.181 
20:00	44.5	44.5	44.5	42	22.9	0	0	---	0.00	30.182 
20:05	44.2	44.2	44.2	44	23.7	0	0	---	0.00	30.180 
20:10	43.9	43.9	43.9	44	23.4	0	0	---	0.00	30.181 
20:15	43.6	43.6	43.6	45	23.7	0	0	---	0.00	30.181 
20:20	43.2	43.2	43.2	47	24.3	0	0	---	0.00	30.182 
20:25	42.8	42.8	42.8	48	24.5	0	0	---	0.00	30.184 
20:30	42.3	42.3	42.3	49	24.5	0	0	---	0.00	30.187 
20:35	42.1	42.1	42.1	49	24.3	0	0	---	0.00	30.193 
20:40	41.6	41.6	41.6	51	24.8	0	0	---	0.00	30.195 
20:45	41.3	41.3	41.3	52	25.0	0	0	---	0.00	30.195 
20:50	41.1	41.1	41.1	54	25.7	0	0	---	0.00	30.196 
20:55	40.8	40.8	40.8	55	25.9	0	0	---	0.00	30.197 
21:00	40.3	40.3	40.3	56	25.9	0	0	---	0.00	30.198 
21:05	40.1	40.1	40.1	58	26.5	0	0	---	0.00	30.197 
21:10	39.8	39.8	39.8	60	27.1	0	0	---	0.00	30.199 
21:15	39.5	39.5	39.5	61	27.2	0	0	---	0.00	30.200 
21:20	39.2	39.2	39.2	62	27.3	0	0	---	0.00	30.201 
21:25	39.1	39.1	39.1	63	27.6	0	0	---	0.00	30.203 
21:30	38.8	38.8	38.8	64	27.7	0	0	---	0.00	30.206 
21:35	38.6	38.6	38.6	65	27.9	0	0	---	0.00	30.208 
21:40	38.3	38.3	38.3	65	27.6	0	0	---	0.00	30.209 
21:45	38.0	38.0	38.0	65	27.3	0	0	---	0.00	30.211 
21:50	37.8	37.8	37.8	66	27.5	0	0	---	0.00	30.212 
21:55	37.6	37.6	37.6	64	26.5	0	2	0	0.00	30.214 
22:00	38.9	38.9	38.9	60	26.2	0	1	338	0.00	30.214 
22:05	40.2	40.2	40.2	58	26.6	1	4	292	0.00	30.211 
22:10	40.6	40.6	40.6	57	26.6	0	2	315	0.00	30.216 
22:15	40.5	40.5	40.5	57	26.5	0	1	292	0.00	30.219 
22:20	40.3	40.3	40.3	58	26.7	0	0	---	0.00	30.222 
22:25	40.1	40.1	40.1	58	26.5	0	0	---	0.00	30.222 
22:30	39.6	39.6	39.6	59	26.5	0	0	---	0.00	30.222 
22:35	39.2	39.2	39.2	60	26.5	0	0	---	0.00	30.224 
22:40	39.1	39.1	39.1	61	26.8	0	1	292	0.00	30.224 
22:45	38.9	38.9	38.9	62	27.0	0	1	292	0.00	30.225 
22:50	38.9	38.9	38.9	62	27.0	0	2	292	0.00	30.225 
22:55	39.1	39.1	39.1	62	27.2	0	1	292	0.00	30.226 
23:00	39.1	39.1	39.1	62	27.2	0	2	292	0.00	30.226 
23:05	39.1	39.1	39.1	62	27.2	0	1	292	0.00	30.225 
23:10	38.9	38.9	38.9	63	27.4	0	1	292	0.00	30.225 
23:15	38.6	38.6	38.6	63	27.1	0	1	292	0.00	30.225 
23:20	38.5	38.5	38.5	64	27.4	0	1	292	0.00	30.226 
23:25	38.3	38.3	38.3	64	27.2	0	2	292	0.00	30.225 
23:30	38.2	38.2	38.2	63	26.7	0	1	292	0.00	30.225 
23:35	38.0	38.0	38.0	64	26.9	0	1	292	0.00	30.224 
23:40	38.0	38.0	38.0	64	26.9	0	1	292	0.00	30.224 
23:45	37.8	37.8	37.8	63	26.4	0	0	---	0.00	30.224 
23:50	37.8	37.8	37.8	64	26.7	0	0	---	0.00	30.225 
23:55	37.6	37.6	37.6	64	26.5	0	1	292	0.00	30.228 

CoCoRaHS
IN-AL-39
A2 Web Hosting
Creative Commons License
GoDaddy
Look for:

loaded 2017-12-10 21:26:30 • last modified 2010-11-18 10:43:29
Privacy PolicyDisclaimer
• wx.awcolley.com is powered by PmWiki v.2002016 •
• all content (unless otherwise noted) © 2017 A W Colley